sensor_id;sensor_type;location;lat;lon;timestamp;temperature;humidity
3408;DHT22;1717;50.240;8.406;2023-02-14T00:02:25;4.80;99.90
3408;DHT22;1717;50.240;8.406;2023-02-14T00:04:52;4.90;99.90
3408;DHT22;1717;50.240;8.406;2023-02-14T00:07:19;4.80;99.90
3408;DHT22;1717;50.240;8.406;2023-02-14T00:09:45;4.90;99.90
3408;DHT22;1717;50.240;8.406;2023-02-14T00:12:12;4.80;99.90
3408;DHT22;1717;50.240;8.406;2023-02-14T00:14:39;4.80;99.90
3408;DHT22;1717;50.240;8.406;2023-02-14T00:17:30;4.80;99.90
3408;DHT22;1717;50.240;8.406;2023-02-14T00:19:57;4.80;99.90
3408;DHT22;1717;50.240;8.406;2023-02-14T00:22:24;4.80;99.90
3408;DHT22;1717;50.240;8.406;2023-02-14T00:24:51;4.80;99.90
3408;DHT22;1717;50.240;8.406;2023-02-14T00:27:17;4.80;99.90
3408;DHT22;1717;50.240;8.406;2023-02-14T00:29:44;4.80;99.90
3408;DHT22;1717;50.240;8.406;2023-02-14T00:32:11;4.80;99.90
3408;DHT22;1717;50.240;8.406;2023-02-14T00:34:40;4.70;99.90
3408;DHT22;1717;50.240;8.406;2023-02-14T00:37:07;4.70;99.90
3408;DHT22;1717;50.240;8.406;2023-02-14T00:39:34;4.70;99.90
3408;DHT22;1717;50.240;8.406;2023-02-14T00:42:01;4.60;99.90
3408;DHT22;1717;50.240;8.406;2023-02-14T00:44:28;4.70;99.90
3408;DHT22;1717;50.240;8.406;2023-02-14T00:46:54;4.60;99.90
3408;DHT22;1717;50.240;8.406;2023-02-14T00:49:21;4.60;99.90
3408;DHT22;1717;50.240;8.406;2023-02-14T00:51:49;4.60;99.90
3408;DHT22;1717;50.240;8.406;2023-02-14T00:54:16;4.60;99.90
3408;DHT22;1717;50.240;8.406;2023-02-14T00:56:43;4.60;99.90
3408;DHT22;1717;50.240;8.406;2023-02-14T00:59:10;4.60;99.90
3408;DHT22;1717;50.240;8.406;2023-02-14T01:01:37;4.60;99.90
3408;DHT22;1717;50.240;8.406;2023-02-14T01:04:04;4.60;99.90
3408;DHT22;1717;50.240;8.406;2023-02-14T01:06:32;4.60;99.90
3408;DHT22;1717;50.240;8.406;2023-02-14T01:09:00;4.50;99.90
3408;DHT22;1717;50.240;8.406;2023-02-14T01:11:27;4.50;99.90
3408;DHT22;1717;50.240;8.406;2023-02-14T01:13:55;4.50;99.90
3408;DHT22;1717;50.240;8.406;2023-02-14T01:16:24;4.40;99.90
3408;DHT22;1717;50.240;8.406;2023-02-14T01:18:51;4.40;99.90
3408;DHT22;1717;50.240;8.406;2023-02-14T01:21:20;4.40;99.90
3408;DHT22;1717;50.240;8.406;2023-02-14T01:23:48;4.40;99.90
3408;DHT22;1717;50.240;8.406;2023-02-14T01:26:17;4.40;99.90
3408;DHT22;1717;50.240;8.406;2023-02-14T01:28:45;4.30;99.90
3408;DHT22;1717;50.240;8.406;2023-02-14T01:31:14;4.30;99.90
3408;DHT22;1717;50.240;8.406;2023-02-14T01:33:43;4.30;99.90
3408;DHT22;1717;50.240;8.406;2023-02-14T01:36:16;4.30;99.90
3408;DHT22;1717;50.240;8.406;2023-02-14T01:38:44;4.30;99.90
3408;DHT22;1717;50.240;8.406;2023-02-14T01:41:11;4.20;99.90
3408;DHT22;1717;50.240;8.406;2023-02-14T01:43:55;4.20;99.90
3408;DHT22;1717;50.240;8.406;2023-02-14T01:46:22;4.20;99.90
3408;DHT22;1717;50.240;8.406;2023-02-14T01:48:49;4.20;99.90
3408;DHT22;1717;50.240;8.406;2023-02-14T01:51:19;4.10;99.90
3408;DHT22;1717;50.240;8.406;2023-02-14T01:53:46;4.20;99.90
3408;DHT22;1717;50.240;8.406;2023-02-14T01:56:18;4.10;99.90
3408;DHT22;1717;50.240;8.406;2023-02-14T01:58:52;4.20;99.90
3408;DHT22;1717;50.240;8.406;2023-02-14T02:01:21;4.10;99.90
3408;DHT22;1717;50.240;8.406;2023-02-14T02:03:52;4.10;99.90
3408;DHT22;1717;50.240;8.406;2023-02-14T02:06:22;4.10;99.90
3408;DHT22;1717;50.240;8.406;2023-02-14T02:08:58;4.10;99.90
3408;DHT22;1717;50.240;8.406;2023-02-14T02:11:26;4.00;99.90
3408;DHT22;1717;50.240;8.406;2023-02-14T02:13:55;4.00;99.90
3408;DHT22;1717;50.240;8.406;2023-02-14T02:22:51;3.90;99.90
3408;DHT22;1717;50.240;8.406;2023-02-14T02:25:35;3.90;99.90
3408;DHT22;1717;50.240;8.406;2023-02-14T02:31:11;3.90;99.90
3408;DHT22;1717;50.240;8.406;2023-02-14T02:37:13;3.80;99.90
3408;DHT22;1717;50.240;8.406;2023-02-14T02:39:51;3.80;99.90
3408;DHT22;1717;50.240;8.406;2023-02-14T02:42:29;3.80;99.90
3408;DHT22;1717;50.240;8.406;2023-02-14T02:45:07;3.80;99.90
3408;DHT22;1717;50.240;8.406;2023-02-14T02:47:40;3.80;99.90
3408;DHT22;1717;50.240;8.406;2023-02-14T02:50:19;3.80;99.90
3408;DHT22;1717;50.240;8.406;2023-02-14T02:53:14;3.70;99.90
3408;DHT22;1717;50.240;8.406;2023-02-14T02:55:44;3.70;99.90
3408;DHT22;1717;50.240;8.406;2023-02-14T02:58:35;3.60;99.90
3408;DHT22;1717;50.240;8.406;2023-02-14T03:01:08;3.60;99.90
3408;DHT22;1717;50.240;8.406;2023-02-14T03:03:36;3.50;99.90
3408;DHT22;1717;50.240;8.406;2023-02-14T03:06:22;3.50;99.90
3408;DHT22;1717;50.240;8.406;2023-02-14T03:08:50;3.40;99.90
3408;DHT22;1717;50.240;8.406;2023-02-14T03:11:17;3.40;99.90
3408;DHT22;1717;50.240;8.406;2023-02-14T03:14:05;3.40;99.90
3408;DHT22;1717;50.240;8.406;2023-02-14T03:16:37;3.30;99.90
3408;DHT22;1717;50.240;8.406;2023-02-14T03:22:02;3.40;99.90
3408;DHT22;1717;50.240;8.406;2023-02-14T03:24:40;3.40;99.90
3408;DHT22;1717;50.240;8.406;2023-02-14T03:27:15;3.40;99.90
3408;DHT22;1717;50.240;8.406;2023-02-14T03:29:52;3.40;99.90
3408;DHT22;1717;50.240;8.406;2023-02-14T03:32:28;3.40;99.90
3408;DHT22;1717;50.240;8.406;2023-02-14T03:35:04;3.40;99.90
3408;DHT22;1717;50.240;8.406;2023-02-14T03:37:35;3.40;99.90
3408;DHT22;1717;50.240;8.406;2023-02-14T03:40:10;3.40;99.90
3408;DHT22;1717;50.240;8.406;2023-02-14T03:42:42;3.40;99.90
3408;DHT22;1717;50.240;8.406;2023-02-14T03:45:14;3.40;99.90
3408;DHT22;1717;50.240;8.406;2023-02-14T03:47:43;3.40;99.90
3408;DHT22;1717;50.240;8.406;2023-02-14T03:50:14;3.40;99.90
3408;DHT22;1717;50.240;8.406;2023-02-14T03:52:43;3.40;99.90
3408;DHT22;1717;50.240;8.406;2023-02-14T03:55:16;3.40;99.90
3408;DHT22;1717;50.240;8.406;2023-02-14T03:57:50;3.30;99.90
3408;DHT22;1717;50.240;8.406;2023-02-14T04:00:19;3.40;99.90
3408;DHT22;1717;50.240;8.406;2023-02-14T04:02:48;3.40;99.90
3408;DHT22;1717;50.240;8.406;2023-02-14T04:05:20;3.40;99.90
3408;DHT22;1717;50.240;8.406;2023-02-14T04:07:50;3.40;99.90
3408;DHT22;1717;50.240;8.406;2023-02-14T04:10:19;3.40;99.90
3408;DHT22;1717;50.240;8.406;2023-02-14T04:12:47;3.40;99.90
3408;DHT22;1717;50.240;8.406;2023-02-14T04:15:15;3.40;99.90
3408;DHT22;1717;50.240;8.406;2023-02-14T04:17:42;3.30;99.90
3408;DHT22;1717;50.240;8.406;2023-02-14T04:20:27;3.30;99.90
3408;DHT22;1717;50.240;8.406;2023-02-14T04:22:54;3.30;99.90
3408;DHT22;1717;50.240;8.406;2023-02-14T04:25:23;3.30;99.90
3408;DHT22;1717;50.240;8.406;2023-02-14T04:27:50;3.30;99.90
3408;DHT22;1717;50.240;8.406;2023-02-14T04:30:17;3.30;99.90
3408;DHT22;1717;50.240;8.406;2023-02-14T04:32:45;3.30;99.90
3408;DHT22;1717;50.240;8.406;2023-02-14T04:35:12;3.30;99.90
3408;DHT22;1717;50.240;8.406;2023-02-14T04:37:40;3.40;99.90
3408;DHT22;1717;50.240;8.406;2023-02-14T04:40:08;3.30;99.90
3408;DHT22;1717;50.240;8.406;2023-02-14T04:42:36;3.30;99.90
3408;DHT22;1717;50.240;8.406;2023-02-14T04:45:03;3.30;99.90
3408;DHT22;1717;50.240;8.406;2023-02-14T04:47:30;3.30;99.90
3408;DHT22;1717;50.240;8.406;2023-02-14T04:49:57;3.30;99.90
3408;DHT22;1717;50.240;8.406;2023-02-14T04:52:24;3.30;99.90
3408;DHT22;1717;50.240;8.406;2023-02-14T04:54:51;3.30;99.90
3408;DHT22;1717;50.240;8.406;2023-02-14T04:57:18;3.30;99.90
3408;DHT22;1717;50.240;8.406;2023-02-14T04:59:46;3.20;99.90
3408;DHT22;1717;50.240;8.406;2023-02-14T05:02:13;3.20;99.90
3408;DHT22;1717;50.240;8.406;2023-02-14T05:04:40;3.20;99.90
3408;DHT22;1717;50.240;8.406;2023-02-14T05:07:07;3.10;99.90
3408;DHT22;1717;50.240;8.406;2023-02-14T05:09:34;3.10;99.90
3408;DHT22;1717;50.240;8.406;2023-02-14T05:12:00;3.10;99.90
3408;DHT22;1717;50.240;8.406;2023-02-14T05:14:27;3.10;99.90
3408;DHT22;1717;50.240;8.406;2023-02-14T05:16:55;2.90;99.90
3408;DHT22;1717;50.240;8.406;2023-02-14T05:19:22;2.90;99.90
3408;DHT22;1717;50.240;8.406;2023-02-14T05:21:49;2.90;99.90
3408;DHT22;1717;50.240;8.406;2023-02-14T05:24:16;3.00;99.90
3408;DHT22;1717;50.240;8.406;2023-02-14T05:26:43;3.00;99.90
3408;DHT22;1717;50.240;8.406;2023-02-14T05:29:10;3.10;99.90
3408;DHT22;1717;50.240;8.406;2023-02-14T05:31:37;3.20;99.90
3408;DHT22;1717;50.240;8.406;2023-02-14T05:34:05;3.20;99.90
3408;DHT22;1717;50.240;8.406;2023-02-14T05:36:32;3.20;99.90
3408;DHT22;1717;50.240;8.406;2023-02-14T05:38:58;3.30;99.90
3408;DHT22;1717;50.240;8.406;2023-02-14T05:41:26;3.20;99.90
3408;DHT22;1717;50.240;8.406;2023-02-14T05:43:54;3.20;99.90
3408;DHT22;1717;50.240;8.406;2023-02-14T05:46:21;3.20;99.90
3408;DHT22;1717;50.240;8.406;2023-02-14T05:48:49;3.20;99.90
3408;DHT22;1717;50.240;8.406;2023-02-14T05:51:17;3.30;99.90
3408;DHT22;1717;50.240;8.406;2023-02-14T05:53:44;3.20;99.90
3408;DHT22;1717;50.240;8.406;2023-02-14T05:56:10;3.20;99.90
3408;DHT22;1717;50.240;8.406;2023-02-14T05:58:38;3.20;99.90
3408;DHT22;1717;50.240;8.406;2023-02-14T06:01:05;3.20;99.90
3408;DHT22;1717;50.240;8.406;2023-02-14T06:03:32;3.20;99.90
3408;DHT22;1717;50.240;8.406;2023-02-14T06:05:59;3.10;99.90
3408;DHT22;1717;50.240;8.406;2023-02-14T06:08:27;3.20;99.90
3408;DHT22;1717;50.240;8.406;2023-02-14T06:10:54;3.10;99.90
3408;DHT22;1717;50.240;8.406;2023-02-14T06:13:20;3.10;99.90
3408;DHT22;1717;50.240;8.406;2023-02-14T06:15:49;3.00;99.90
3408;DHT22;1717;50.240;8.406;2023-02-14T06:18:18;3.00;99.90
3408;DHT22;1717;50.240;8.406;2023-02-14T06:20:45;3.00;99.90
3408;DHT22;1717;50.240;8.406;2023-02-14T06:23:11;2.90;99.90
3408;DHT22;1717;50.240;8.406;2023-02-14T06:25:39;2.90;99.90
3408;DHT22;1717;50.240;8.406;2023-02-14T06:28:06;2.90;99.90
3408;DHT22;1717;50.240;8.406;2023-02-14T06:30:33;2.80;99.90
3408;DHT22;1717;50.240;8.406;2023-02-14T06:33:00;2.80;99.90
3408;DHT22;1717;50.240;8.406;2023-02-14T06:35:27;2.80;99.90
3408;DHT22;1717;50.240;8.406;2023-02-14T06:37:53;2.80;99.90
3408;DHT22;1717;50.240;8.406;2023-02-14T06:40:20;2.70;99.90
3408;DHT22;1717;50.240;8.406;2023-02-14T06:42:49;2.70;99.90
3408;DHT22;1717;50.240;8.406;2023-02-14T06:45:16;2.70;99.90
3408;DHT22;1717;50.240;8.406;2023-02-14T06:47:44;2.90;99.90
3408;DHT22;1717;50.240;8.406;2023-02-14T06:50:11;2.70;99.90
3408;DHT22;1717;50.240;8.406;2023-02-14T06:52:38;2.70;99.90
3408;DHT22;1717;50.240;8.406;2023-02-14T06:55:07;2.70;99.90
3408;DHT22;1717;50.240;8.406;2023-02-14T06:57:36;2.70;99.90
3408;DHT22;1717;50.240;8.406;2023-02-14T07:00:06;2.70;99.90
3408;DHT22;1717;50.240;8.406;2023-02-14T07:02:34;2.70;99.90
3408;DHT22;1717;50.240;8.406;2023-02-14T07:05:01;2.60;99.90
3408;DHT22;1717;50.240;8.406;2023-02-14T07:07:28;2.60;99.90
3408;DHT22;1717;50.240;8.406;2023-02-14T07:09:55;2.60;99.90
3408;DHT22;1717;50.240;8.406;2023-02-14T07:12:21;2.60;99.90
3408;DHT22;1717;50.240;8.406;2023-02-14T07:14:48;2.60;99.90
3408;DHT22;1717;50.240;8.406;2023-02-14T07:17:16;2.60;99.90
3408;DHT22;1717;50.240;8.406;2023-02-14T07:19:43;2.60;99.90
3408;DHT22;1717;50.240;8.406;2023-02-14T07:22:10;2.50;99.90
3408;DHT22;1717;50.240;8.406;2023-02-14T07:24:37;2.60;99.90
3408;DHT22;1717;50.240;8.406;2023-02-14T07:27:03;2.60;99.90
3408;DHT22;1717;50.240;8.406;2023-02-14T07:29:30;2.60;99.90
3408;DHT22;1717;50.240;8.406;2023-02-14T07:31:57;2.60;99.90
3408;DHT22;1717;50.240;8.406;2023-02-14T07:34:25;2.60;99.90
3408;DHT22;1717;50.240;8.406;2023-02-14T07:36:52;2.60;99.90
3408;DHT22;1717;50.240;8.406;2023-02-14T07:39:19;2.60;99.90
3408;DHT22;1717;50.240;8.406;2023-02-14T07:41:46;2.60;99.90
3408;DHT22;1717;50.240;8.406;2023-02-14T07:44:13;2.60;99.90
3408;DHT22;1717;50.240;8.406;2023-02-14T07:46:40;2.60;99.90
3408;DHT22;1717;50.240;8.406;2023-02-14T07:49:07;2.60;99.90
3408;DHT22;1717;50.240;8.406;2023-02-14T07:51:36;2.60;99.90
3408;DHT22;1717;50.240;8.406;2023-02-14T07:54:03;2.60;99.90
3408;DHT22;1717;50.240;8.406;2023-02-14T07:56:30;2.60;99.90
3408;DHT22;1717;50.240;8.406;2023-02-14T07:58:57;2.60;99.90
3408;DHT22;1717;50.240;8.406;2023-02-14T08:01:23;2.60;99.90
3408;DHT22;1717;50.240;8.406;2023-02-14T08:03:50;2.60;99.90
3408;DHT22;1717;50.240;8.406;2023-02-14T08:06:18;2.70;99.90
3408;DHT22;1717;50.240;8.406;2023-02-14T08:08:46;2.70;99.90
3408;DHT22;1717;50.240;8.406;2023-02-14T08:11:13;2.60;99.90
3408;DHT22;1717;50.240;8.406;2023-02-14T08:14:01;2.70;99.90
3408;DHT22;1717;50.240;8.406;2023-02-14T08:16:28;2.80;99.90
3408;DHT22;1717;50.240;8.406;2023-02-14T08:18:56;2.90;99.90
3408;DHT22;1717;50.240;8.406;2023-02-14T08:21:23;2.90;99.90
3408;DHT22;1717;50.240;8.406;2023-02-14T08:23:51;3.00;99.90
3408;DHT22;1717;50.240;8.406;2023-02-14T08:26:18;3.10;99.90
3408;DHT22;1717;50.240;8.406;2023-02-14T08:28:45;3.20;99.90
3408;DHT22;1717;50.240;8.406;2023-02-14T08:31:23;3.30;99.90
3408;DHT22;1717;50.240;8.406;2023-02-14T08:33:50;3.40;99.90
3408;DHT22;1717;50.240;8.406;2023-02-14T08:36:18;3.50;99.90
3408;DHT22;1717;50.240;8.406;2023-02-14T08:38:45;3.70;99.90
3408;DHT22;1717;50.240;8.406;2023-02-14T08:41:15;3.70;99.90
3408;DHT22;1717;50.240;8.406;2023-02-14T08:43:42;3.90;99.90
3408;DHT22;1717;50.240;8.406;2023-02-14T08:46:10;4.00;99.90
3408;DHT22;1717;50.240;8.406;2023-02-14T08:48:37;4.10;99.90
3408;DHT22;1717;50.240;8.406;2023-02-14T08:51:05;4.10;99.90
3408;DHT22;1717;50.240;8.406;2023-02-14T08:53:32;4.10;99.90
3408;DHT22;1717;50.240;8.406;2023-02-14T08:56:01;4.20;99.90
3408;DHT22;1717;50.240;8.406;2023-02-14T08:58:30;4.30;99.90
3408;DHT22;1717;50.240;8.406;2023-02-14T09:00:58;4.30;99.90
3408;DHT22;1717;50.240;8.406;2023-02-14T09:03:25;4.40;99.90
3408;DHT22;1717;50.240;8.406;2023-02-14T09:05:52;4.40;99.90
3408;DHT22;1717;50.240;8.406;2023-02-14T09:08:18;4.50;99.90
3408;DHT22;1717;50.240;8.406;2023-02-14T09:10:46;4.50;99.90
3408;DHT22;1717;50.240;8.406;2023-02-14T09:13:13;4.60;99.90
3408;DHT22;1717;50.240;8.406;2023-02-14T09:15:42;4.70;99.90
3408;DHT22;1717;50.240;8.406;2023-02-14T09:18:09;4.70;99.90
3408;DHT22;1717;50.240;8.406;2023-02-14T09:20:36;4.80;99.90
3408;DHT22;1717;50.240;8.406;2023-02-14T09:23:03;4.80;99.90
3408;DHT22;1717;50.240;8.406;2023-02-14T09:25:30;4.90;99.90
3408;DHT22;1717;50.240;8.406;2023-02-14T09:27:56;5.00;99.90
3408;DHT22;1717;50.240;8.406;2023-02-14T09:30:23;5.00;99.90
3408;DHT22;1717;50.240;8.406;2023-02-14T09:32:53;5.10;99.90
3408;DHT22;1717;50.240;8.406;2023-02-14T09:35:20;5.20;99.90
3408;DHT22;1717;50.240;8.406;2023-02-14T09:37:47;5.30;99.90
3408;DHT22;1717;50.240;8.406;2023-02-14T09:40:15;5.30;99.90
3408;DHT22;1717;50.240;8.406;2023-02-14T09:42:55;5.50;99.90
3408;DHT22;1717;50.240;8.406;2023-02-14T09:45:25;5.50;99.90
3408;DHT22;1717;50.240;8.406;2023-02-14T09:47:57;5.50;99.90
3408;DHT22;1717;50.240;8.406;2023-02-14T09:50:29;5.60;99.90
3408;DHT22;1717;50.240;8.406;2023-02-14T09:53:03;5.50;99.90
3408;DHT22;1717;50.240;8.406;2023-02-14T09:55:37;5.60;99.90
3408;DHT22;1717;50.240;8.406;2023-02-14T09:58:08;5.60;99.90
3408;DHT22;1717;50.240;8.406;2023-02-14T10:00:44;5.60;99.90
3408;DHT22;1717;50.240;8.406;2023-02-14T10:06:12;5.60;99.90
3408;DHT22;1717;50.240;8.406;2023-02-14T10:08:56;5.60;99.90
3408;DHT22;1717;50.240;8.406;2023-02-14T10:11:28;5.70;99.90
3408;DHT22;1717;50.240;8.406;2023-02-14T10:13:58;5.70;99.90
3408;DHT22;1717;50.240;8.406;2023-02-14T10:16:31;5.70;99.90
3408;DHT22;1717;50.240;8.406;2023-02-14T10:19:03;5.80;99.90
3408;DHT22;1717;50.240;8.406;2023-02-14T10:21:38;5.80;99.90
3408;DHT22;1717;50.240;8.406;2023-02-14T10:24:10;5.80;99.90
3408;DHT22;1717;50.240;8.406;2023-02-14T10:26:40;5.80;99.90
3408;DHT22;1717;50.240;8.406;2023-02-14T10:29:12;5.80;99.90
3408;DHT22;1717;50.240;8.406;2023-02-14T10:31:43;5.80;99.90
3408;DHT22;1717;50.240;8.406;2023-02-14T10:34:21;5.90;99.90
3408;DHT22;1717;50.240;8.406;2023-02-14T10:37:19;6.00;99.90
3408;DHT22;1717;50.240;8.406;2023-02-14T10:42:59;6.00;99.90
3408;DHT22;1717;50.240;8.406;2023-02-14T10:45:35;6.00;99.90
3408;DHT22;1717;50.240;8.406;2023-02-14T10:48:09;6.00;99.90
3408;DHT22;1717;50.240;8.406;2023-02-14T10:50:48;6.00;99.90
3408;DHT22;1717;50.240;8.406;2023-02-14T10:53:24;6.10;99.90
3408;DHT22;1717;50.240;8.406;2023-02-14T10:55:55;6.10;99.90
3408;DHT22;1717;50.240;8.406;2023-02-14T10:58:26;6.30;99.90
3408;DHT22;1717;50.240;8.406;2023-02-14T11:00:59;6.30;99.90
3408;DHT22;1717;50.240;8.406;2023-02-14T11:03:27;6.40;99.90
3408;DHT22;1717;50.240;8.406;2023-02-14T11:05:56;6.40;99.90
3408;DHT22;1717;50.240;8.406;2023-02-14T11:08:26;6.50;99.90
3408;DHT22;1717;50.240;8.406;2023-02-14T11:11:00;6.50;99.90
3408;DHT22;1717;50.240;8.406;2023-02-14T11:13:33;6.60;99.90
3408;DHT22;1717;50.240;8.406;2023-02-14T11:16:02;6.60;99.90
3408;DHT22;1717;50.240;8.406;2023-02-14T11:18:30;6.60;99.90
3408;DHT22;1717;50.240;8.406;2023-02-14T11:21:07;6.70;99.90
3408;DHT22;1717;50.240;8.406;2023-02-14T11:23:37;6.70;99.90
3408;DHT22;1717;50.240;8.406;2023-02-14T11:26:08;6.70;99.90
3408;DHT22;1717;50.240;8.406;2023-02-14T11:28:48;6.80;99.90
3408;DHT22;1717;50.240;8.406;2023-02-14T11:31:30;6.70;99.90
3408;DHT22;1717;50.240;8.406;2023-02-14T11:33:58;6.70;99.90
3408;DHT22;1717;50.240;8.406;2023-02-14T11:36:28;6.80;99.90
3408;DHT22;1717;50.240;8.406;2023-02-14T11:39:01;6.70;99.90
3408;DHT22;1717;50.240;8.406;2023-02-14T11:41:45;6.70;99.90
3408;DHT22;1717;50.240;8.406;2023-02-14T11:44:15;6.70;99.90
3408;DHT22;1717;50.240;8.406;2023-02-14T11:46:47;6.70;99.90
3408;DHT22;1717;50.240;8.406;2023-02-14T11:49:25;6.70;99.90
3408;DHT22;1717;50.240;8.406;2023-02-14T11:51:56;6.70;99.90
3408;DHT22;1717;50.240;8.406;2023-02-14T11:54:29;6.70;99.90
3408;DHT22;1717;50.240;8.406;2023-02-14T11:57:02;6.60;99.90
3408;DHT22;1717;50.240;8.406;2023-02-14T11:59:33;6.60;99.90
3408;DHT22;1717;50.240;8.406;2023-02-14T12:02:19;6.60;99.90
3408;DHT22;1717;50.240;8.406;2023-02-14T12:04:49;6.60;99.90
3408;DHT22;1717;50.240;8.406;2023-02-14T12:07:20;6.50;99.90
3408;DHT22;1717;50.240;8.406;2023-02-14T12:10:15;6.50;99.90
3408;DHT22;1717;50.240;8.406;2023-02-14T12:12:52;6.50;99.90
3408;DHT22;1717;50.240;8.406;2023-02-14T12:15:26;6.50;99.90
3408;DHT22;1717;50.240;8.406;2023-02-14T12:17:59;6.50;99.90
3408;DHT22;1717;50.240;8.406;2023-02-14T12:20:35;6.40;99.90
3408;DHT22;1717;50.240;8.406;2023-02-14T12:23:09;6.40;99.90
3408;DHT22;1717;50.240;8.406;2023-02-14T12:25:45;6.40;99.90
3408;DHT22;1717;50.240;8.406;2023-02-14T12:28:19;6.40;99.90
3408;DHT22;1717;50.240;8.406;2023-02-14T12:30:48;6.40;99.90
3408;DHT22;1717;50.240;8.406;2023-02-14T12:33:18;6.40;99.90
3408;DHT22;1717;50.240;8.406;2023-02-14T12:35:50;6.40;99.90
3408;DHT22;1717;50.240;8.406;2023-02-14T12:38:27;6.40;99.90
3408;DHT22;1717;50.240;8.406;2023-02-14T12:41:03;6.40;99.90
3408;DHT22;1717;50.240;8.406;2023-02-14T12:43:45;6.40;99.90
3408;DHT22;1717;50.240;8.406;2023-02-14T12:52:26;6.40;99.90
3408;DHT22;1717;50.240;8.406;2023-02-14T12:55:13;6.40;99.90
3408;DHT22;1717;50.240;8.406;2023-02-14T12:57:50;6.40;99.90
3408;DHT22;1717;50.240;8.406;2023-02-14T13:00:26;6.40;99.90
3408;DHT22;1717;50.240;8.406;2023-02-14T13:03:32;6.40;99.90
3408;DHT22;1717;50.240;8.406;2023-02-14T13:06:04;6.40;99.90
3408;DHT22;1717;50.240;8.406;2023-02-14T13:08:53;6.40;99.90
3408;DHT22;1717;50.240;8.406;2023-02-14T13:11:35;6.40;99.90
3408;DHT22;1717;50.240;8.406;2023-02-14T13:14:13;6.40;99.90
3408;DHT22;1717;50.240;8.406;2023-02-14T13:16:50;6.50;99.90
3408;DHT22;1717;50.240;8.406;2023-02-14T13:19:29;6.50;99.90
3408;DHT22;1717;50.240;8.406;2023-02-14T13:22:00;6.50;99.90
3408;DHT22;1717;50.240;8.406;2023-02-14T13:24:34;6.50;99.90
3408;DHT22;1717;50.240;8.406;2023-02-14T13:27:07;6.60;99.90
3408;DHT22;1717;50.240;8.406;2023-02-14T13:29:43;6.60;99.90
3408;DHT22;1717;50.240;8.406;2023-02-14T13:32:14;6.60;99.90
3408;DHT22;1717;50.240;8.406;2023-02-14T13:34:44;6.70;99.90
3408;DHT22;1717;50.240;8.406;2023-02-14T13:37:14;6.70;99.90
3408;DHT22;1717;50.240;8.406;2023-02-14T13:39:45;6.70;99.90
3408;DHT22;1717;50.240;8.406;2023-02-14T13:42:53;6.80;99.90
3408;DHT22;1717;50.240;8.406;2023-02-14T13:45:52;6.80;99.90
3408;DHT22;1717;50.240;8.406;2023-02-14T13:48:21;6.80;99.90
3408;DHT22;1717;50.240;8.406;2023-02-14T13:50:51;6.80;99.90
3408;DHT22;1717;50.240;8.406;2023-02-14T13:53:30;6.90;99.90
3408;DHT22;1717;50.240;8.406;2023-02-14T13:55:58;6.90;99.90
3408;DHT22;1717;50.240;8.406;2023-02-14T13:58:26;6.90;99.90
3408;DHT22;1717;50.240;8.406;2023-02-14T14:00:54;7.00;99.90
3408;DHT22;1717;50.240;8.406;2023-02-14T14:03:54;7.00;99.90
3408;DHT22;1717;50.240;8.406;2023-02-14T14:06:21;7.00;99.90
3408;DHT22;1717;50.240;8.406;2023-02-14T14:08:50;7.00;99.90
3408;DHT22;1717;50.240;8.406;2023-02-14T14:14:32;7.10;99.90
3408;DHT22;1717;50.240;8.406;2023-02-14T14:17:01;7.20;99.90
3408;DHT22;1717;50.240;8.406;2023-02-14T14:19:38;7.30;99.90
3408;DHT22;1717;50.240;8.406;2023-02-14T14:22:07;7.30;99.90
3408;DHT22;1717;50.240;8.406;2023-02-14T14:24:36;7.40;99.90
3408;DHT22;1717;50.240;8.406;2023-02-14T14:27:05;7.40;99.90
3408;DHT22;1717;50.240;8.406;2023-02-14T14:29:44;7.50;99.90
3408;DHT22;1717;50.240;8.406;2023-02-14T14:32:17;7.60;99.90
3408;DHT22;1717;50.240;8.406;2023-02-14T14:34:51;7.70;99.90
3408;DHT22;1717;50.240;8.406;2023-02-14T14:37:20;7.80;99.90
3408;DHT22;1717;50.240;8.406;2023-02-14T14:39:50;8.00;99.90
3408;DHT22;1717;50.240;8.406;2023-02-14T14:42:18;8.20;99.90
3408;DHT22;1717;50.240;8.406;2023-02-14T14:44:49;8.40;99.90
3408;DHT22;1717;50.240;8.406;2023-02-14T14:47:19;8.70;99.90
3408;DHT22;1717;50.240;8.406;2023-02-14T14:49:47;8.90;99.90
3408;DHT22;1717;50.240;8.406;2023-02-14T14:52:28;9.20;99.90
3408;DHT22;1717;50.240;8.406;2023-02-14T14:54:56;9.40;99.90
3408;DHT22;1717;50.240;8.406;2023-02-14T14:57:24;9.60;99.90
3408;DHT22;1717;50.240;8.406;2023-02-14T15:00:07;9.60;99.90
3408;DHT22;1717;50.240;8.406;2023-02-14T15:02:35;9.40;99.90
3408;DHT22;1717;50.240;8.406;2023-02-14T15:05:15;9.30;99.90
3408;DHT22;1717;50.240;8.406;2023-02-14T15:07:43;9.30;99.90
3408;DHT22;1717;50.240;8.406;2023-02-14T15:10:24;9.10;99.90
3408;DHT22;1717;50.240;8.406;2023-02-14T15:12:52;9.10;99.90
3408;DHT22;1717;50.240;8.406;2023-02-14T15:15:40;9.10;99.90
3408;DHT22;1717;50.240;8.406;2023-02-14T15:18:10;9.00;99.90
3408;DHT22;1717;50.240;8.406;2023-02-14T15:20:38;9.00;99.90
3408;DHT22;1717;50.240;8.406;2023-02-14T15:23:12;8.90;99.90
3408;DHT22;1717;50.240;8.406;2023-02-14T15:25:43;8.80;99.90
3408;DHT22;1717;50.240;8.406;2023-02-14T15:28:14;8.80;99.90
3408;DHT22;1717;50.240;8.406;2023-02-14T15:31:00;8.80;99.90
3408;DHT22;1717;50.240;8.406;2023-02-14T15:33:28;8.80;99.90
3408;DHT22;1717;50.240;8.406;2023-02-14T15:35:56;8.90;99.90
3408;DHT22;1717;50.240;8.406;2023-02-14T15:38:25;8.90;99.90
3408;DHT22;1717;50.240;8.406;2023-02-14T15:40:53;8.90;99.90
3408;DHT22;1717;50.240;8.406;2023-02-14T15:43:25;8.90;99.90
3408;DHT22;1717;50.240;8.406;2023-02-14T15:45:58;8.80;99.90
3408;DHT22;1717;50.240;8.406;2023-02-14T15:48:28;8.90;99.90
3408;DHT22;1717;50.240;8.406;2023-02-14T15:51:00;8.80;99.90
3408;DHT22;1717;50.240;8.406;2023-02-14T15:53:39;8.80;99.90
3408;DHT22;1717;50.240;8.406;2023-02-14T15:56:09;8.70;99.90
3408;DHT22;1717;50.240;8.406;2023-02-14T15:58:38;8.70;99.90
3408;DHT22;1717;50.240;8.406;2023-02-14T16:01:07;8.60;99.90
3408;DHT22;1717;50.240;8.406;2023-02-14T16:03:38;8.50;99.90
3408;DHT22;1717;50.240;8.406;2023-02-14T16:06:13;8.40;99.90
3408;DHT22;1717;50.240;8.406;2023-02-14T16:08:42;8.30;99.90
3408;DHT22;1717;50.240;8.406;2023-02-14T16:11:13;8.20;99.90
3408;DHT22;1717;50.240;8.406;2023-02-14T16:13:41;8.10;99.90
3408;DHT22;1717;50.240;8.406;2023-02-14T16:16:11;8.10;99.90
3408;DHT22;1717;50.240;8.406;2023-02-14T16:18:39;7.90;99.90
3408;DHT22;1717;50.240;8.406;2023-02-14T16:21:12;7.80;99.90
3408;DHT22;1717;50.240;8.406;2023-02-14T16:23:40;7.70;99.90
3408;DHT22;1717;50.240;8.406;2023-02-14T16:26:07;7.60;99.90
3408;DHT22;1717;50.240;8.406;2023-02-14T16:28:34;7.50;99.90
3408;DHT22;1717;50.240;8.406;2023-02-14T16:31:04;7.40;99.90
3408;DHT22;1717;50.240;8.406;2023-02-14T16:33:37;7.30;99.90
3408;DHT22;1717;50.240;8.406;2023-02-14T16:36:07;7.10;99.90
3408;DHT22;1717;50.240;8.406;2023-02-14T16:38:41;7.00;99.90
3408;DHT22;1717;50.240;8.406;2023-02-14T16:41:16;6.90;99.90
3408;DHT22;1717;50.240;8.406;2023-02-14T16:43:44;6.80;99.90
3408;DHT22;1717;50.240;8.406;2023-02-14T16:46:12;6.70;99.90
3408;DHT22;1717;50.240;8.406;2023-02-14T16:48:41;6.60;99.90
3408;DHT22;1717;50.240;8.406;2023-02-14T16:51:11;6.50;99.90
3408;DHT22;1717;50.240;8.406;2023-02-14T16:53:39;6.40;99.90
3408;DHT22;1717;50.240;8.406;2023-02-14T16:56:10;6.30;99.90
3408;DHT22;1717;50.240;8.406;2023-02-14T16:58:39;6.20;99.90
3408;DHT22;1717;50.240;8.406;2023-02-14T17:01:06;6.10;99.90
3408;DHT22;1717;50.240;8.406;2023-02-14T17:03:33;6.10;99.90
3408;DHT22;1717;50.240;8.406;2023-02-14T17:06:01;6.00;99.90
3408;DHT22;1717;50.240;8.406;2023-02-14T17:08:29;5.90;99.90
3408;DHT22;1717;50.240;8.406;2023-02-14T17:10:57;5.90;99.90
3408;DHT22;1717;50.240;8.406;2023-02-14T17:13:26;5.80;99.90